Time;durP1;ratioP1;P1;durP2;ratioP2;P2;SDS_P1;SDS_P2;PMS_P1;PMS_P2;Temp;Humidity;BMP_temperature;BMP_pressure;BME280_temperature;BME280_humidity;BME280_pressure;Samples;Min_cycle;Max_cycle;Signal;HPM_P1;HPM_P2
2024/02/15 00:01:04;;;;;;;18.30;7.57;;;14.40;99.90;;;14.73;100.00;101483.16;5012997;28;20038;-66
2024/02/15 00:03:32;;;;;;;15.98;7.70;;;14.40;99.90;;;14.65;100.00;101485.03;5013344;28;20049;-66
2024/02/15 00:06:01;;;;;;;14.85;6.97;;;14.40;99.90;;;14.53;100.00;101479.84;5013159;28;20050;-66
2024/02/15 00:08:31;;;;;;;14.77;7.65;;;14.30;99.90;;;14.56;100.00;101479.78;4995691;28;20400;-65
2024/02/15 00:10:59;;;;;;;23.02;8.60;;;14.30;99.90;;;14.54;100.00;101475.41;5013052;28;20443;-66
2024/02/15 00:13:28;;;;;;;18.00;8.43;;;14.30;99.90;;;14.58;100.00;101482.44;5012923;28;20041;-65
2024/02/15 00:15:56;;;;;;;13.77;8.88;;;14.30;99.90;;;14.57;100.00;101488.66;5012970;28;20066;-65
2024/02/15 00:18:26;;;;;;;16.30;8.85;;;14.30;99.90;;;14.57;100.00;101481.56;5013020;28;20064;-65
2024/02/15 00:20:55;;;;;;;18.67;8.45;;;14.20;99.90;;;14.60;100.00;101484.19;5013169;28;20399;-66
2024/02/15 00:23:23;;;;;;;19.15;9.57;;;14.30;99.90;;;14.63;100.00;101473.53;5012550;28;20053;-66
2024/02/15 00:25:52;;;;;;;16.75;9.82;;;14.30;99.90;;;14.58;100.00;101479.78;5013154;28;20046;-65
2024/02/15 00:28:21;;;;;;;16.30;9.02;;;14.30;99.90;;;14.52;100.00;101477.19;5012776;28;20045;-65
2024/02/15 00:30:49;;;;;;;24.58;9.98;;;14.30;99.90;;;14.55;100.00;101472.72;5012531;28;20582;-66
2024/02/15 00:33:18;;;;;;;18.13;9.63;;;14.30;99.90;;;14.59;100.00;101478.88;5012338;28;20050;-66
2024/02/15 00:35:51;;;;;;;16.63;10.23;;;14.30;99.90;;;14.57;100.00;101460.28;5012255;28;20064;-66
2024/02/15 00:38:20;;;;;;;16.05;9.10;;;14.30;99.90;;;14.59;100.00;101478.88;5012450;28;20050;-66
2024/02/15 00:40:48;;;;;;;19.50;9.25;;;14.30;99.90;;;14.58;100.00;101464.69;5012598;28;20121;-66
2024/02/15 00:43:17;;;;;;;19.40;9.77;;;14.30;99.90;;;14.56;100.00;101463.81;5012225;28;20411;-66
2024/02/15 00:45:45;;;;;;;16.92;10.30;;;14.30;99.90;;;14.51;100.00;101471.00;5011586;28;20757;-65
2024/02/15 00:48:13;;;;;;;17.63;8.85;;;14.30;99.90;;;14.53;100.00;101457.66;5012285;28;20038;-66
2024/02/15 00:50:42;;;;;;;16.88;9.43;;;14.30;99.90;;;14.54;100.00;101460.28;5012552;28;20056;-66
2024/02/15 00:53:16;;;;;;;16.58;8.85;;;14.30;99.90;;;14.57;100.00;101475.34;5012144;28;20501;-66
2024/02/15 00:55:45;;;;;;;17.25;9.55;;;14.30;99.90;;;14.57;100.00;101459.38;5012160;28;20464;-66
2024/02/15 00:58:13;;;;;;;15.65;9.85;;;14.30;99.90;;;14.59;100.00;101458.47;5012338;28;20107;-66
2024/02/15 01:00:42;;;;;;;18.63;9.50;;;14.30;99.90;;;14.56;100.00;101457.59;5011902;28;20058;-65
2024/02/15 01:03:10;;;;;;;23.30;10.57;;;14.30;99.90;;;14.57;100.00;101456.72;5012193;28;20034;-66
2024/02/15 01:05:38;;;;;;;18.85;9.65;;;14.30;99.90;;;14.61;100.00;101456.69;4994591;28;20393;-65
2024/02/15 01:08:08;;;;;;;20.20;10.20;;;14.30;99.90;;;14.61;100.00;101451.34;5012030;28;20042;-65
2024/02/15 01:10:38;;;;;;;19.27;10.15;;;14.30;99.90;;;14.60;100.00;101457.56;5011911;28;20156;-66
2024/02/15 01:13:08;;;;;;;18.70;10.35;;;14.30;99.90;;;14.62;100.00;101447.78;5011993;28;20071;-65
2024/02/15 01:15:37;;;;;;;16.42;9.38;;;14.30;99.90;;;14.63;100.00;101462.88;5011554;28;20049;-65
2024/02/15 01:18:05;;;;;;;18.55;9.65;;;14.30;99.90;;;14.67;100.00;101453.94;5011738;28;20038;-66
2024/02/15 01:20:34;;;;;;;21.65;10.05;;;14.40;99.90;;;14.68;100.00;101449.47;5011835;28;20699;-66
2024/02/15 01:23:04;;;;;;;16.85;10.23;;;14.40;99.90;;;14.69;100.00;101440.63;5012077;28;20048;-65
2024/02/15 01:25:33;;;;;;;15.85;9.93;;;14.40;99.90;;;14.64;100.00;101430.00;5012315;28;20050;-66
2024/02/15 01:28:03;;;;;;;19.38;9.55;;;14.40;99.90;;;14.59;100.00;101439.84;5011774;28;20061;-66
2024/02/15 01:30:32;;;;;;;17.02;9.65;;;14.30;99.90;;;14.60;100.00;101449.56;5012310;28;20479;-66
2024/02/15 01:33:00;;;;;;;16.40;9.38;;;14.30;99.90;;;13.87;100.00;101327.06;5011779;28;20054;-66
2024/02/15 01:35:29;;;;;;;20.35;8.93;;;14.30;99.90;;;14.57;100.00;101446.97;4994072;28;20092;-66
2024/02/15 01:37:57;;;;;;;20.58;9.25;;;14.30;99.90;;;14.58;100.00;101439.81;5011968;28;20088;-66
2024/02/15 01:40:26;;;;;;;17.08;8.93;;;14.30;99.90;;;14.55;100.00;101427.47;5011376;28;20042;-66
2024/02/15 01:42:55;;;;;;;19.20;8.77;;;14.30;99.90;;;14.47;100.00;101434.66;5011453;28;20707;-66
2024/02/15 01:45:25;;;;;;;21.58;9.40;;;14.30;99.90;;;14.51;100.00;101441.69;5011239;28;20542;-66
2024/02/15 01:47:55;;;;;;;16.73;9.73;;;14.20;99.90;;;14.51;100.00;101424.84;5011428;28;20546;-65
2024/02/15 01:50:25;;;;;;;15.63;9.00;;;14.20;99.90;;;14.39;100.00;101399.25;5011211;28;20124;-65
2024/02/15 01:52:56;;;;;;;18.30;9.20;;;14.20;99.90;;;14.49;100.00;101427.53;4993788;28;20341;-65
2024/02/15 01:55:25;;;;;;;22.55;9.43;;;14.20;99.90;;;14.48;100.00;101411.59;4993653;28;20108;-66
2024/02/15 01:57:55;;;;;;;25.17;9.75;;;14.20;99.90;;;14.51;100.00;101417.75;5011450;28;20070;-66
2024/02/15 02:00:25;;;;;;;13.55;8.57;;;14.20;99.90;;;14.57;100.00;101408.81;5011002;28;20053;-66
2024/02/15 02:03:02;;;;;;;14.40;8.73;;;14.30;99.90;;;14.32;100.00;101365.63;4993457;28;20054;-66
2024/02/15 02:05:32;;;;;;;20.45;9.35;;;14.30;99.90;;;14.47;100.00;101400.03;5010886;28;20046;-66
2024/02/15 02:08:04;;;;;;;18.85;9.73;;;14.30;99.90;;;14.51;100.00;101404.44;5010764;28;20355;-65
2024/02/15 02:10:32;;;;;;;17.20;8.00;;;14.30;99.90;;;14.49;100.00;101406.22;5010901;28;20046;-66
2024/02/15 02:13:02;;;;;;;19.75;8.65;;;14.20;99.90;;;14.46;100.00;101414.22;5010905;28;20389;-66
2024/02/15 02:15:33;;;;;;;18.92;9.00;;;14.20;99.90;;;14.31;100.00;101382.47;5011991;28;20303;-65
2024/02/15 02:18:01;;;;;;;;;;;14.20;99.90;;;14.45;100.00;101394.75;5011752;28;20052;-66
2024/02/15 02:20:30;;;;;;;20.40;9.32;;;14.20;99.90;;;14.49;100.00;101403.56;5011221;28;20388;-65
2024/02/15 02:23:08;;;;;;;20.13;9.40;;;14.20;99.90;;;14.44;100.00;101394.72;5011609;28;20049;-65
2024/02/15 02:25:38;;;;;;;17.80;9.15;;;14.20;99.90;;;14.48;100.00;101399.13;5011404;28;20042;-66
2024/02/15 02:28:08;;;;;;;16.52;8.88;;;14.20;99.90;;;14.44;100.00;101392.97;5011239;28;20523;-66
2024/02/15 02:30:36;;;;;;;20.85;9.23;;;14.20;99.90;;;14.46;100.00;101399.16;5011536;28;20157;-65
2024/02/15 02:33:07;;;;;;;19.73;9.32;;;14.20;99.90;;;14.45;100.00;101399.19;4993860;28;20660;-66
2024/02/15 02:35:35;;;;;;;;;;;14.20;99.90;;;14.22;100.00;101358.59;5011641;28;20050;-66
2024/02/15 02:38:04;;;;;;;15.95;8.43;;;14.20;99.90;;;14.48;100.00;101405.34;4993713;28;20012;-66
2024/02/15 02:40:33;;;;;;;17.10;9.43;;;14.20;99.90;;;14.43;100.00;101411.63;5010915;28;20554;-66
2024/02/15 02:43:04;;;;;;;20.70;9.25;;;14.20;99.90;;;14.51;100.00;101400.88;5010942;28;20038;-65
2024/02/15 02:45:32;;;;;;;18.75;9.73;;;14.20;99.90;;;14.44;100.00;101405.38;5010979;28;20450;-66
2024/02/15 02:48:00;;;;;;;16.42;9.98;;;14.20;99.90;;;14.48;100.00;101397.34;4993514;28;20108;-65
2024/02/15 02:50:29;;;;;;;23.70;10.00;;;14.20;99.90;;;14.56;100.00;101394.59;5011078;28;20619;-66
2024/02/15 02:52:57;;;;;;;18.20;9.95;;;14.30;99.90;;;14.52;100.00;101395.53;5011715;28;20112;-66
2024/02/15 02:55:27;;;;;;;20.70;9.75;;;14.30;99.90;;;14.52;100.00;101400.84;5010786;28;20070;-65
2024/02/15 02:57:56;;;;;;;18.73;9.55;;;14.20;99.90;;;14.41;100.00;101390.34;4993620;28;20145;-66
2024/02/15 03:00:27;;;;;;;17.63;9.35;;;14.20;99.90;;;14.49;100.00;101398.25;5010996;28;20444;-66
2024/02/15 03:02:56;;;;;;;17.02;8.95;;;14.20;99.90;;;14.51;100.00;101398.22;5010785;28;20100;-65
2024/02/15 03:05:25;;;;;;;19.02;8.98;;;14.20;99.90;;;14.50;100.00;101394.66;5010862;28;20132;-66
2024/02/15 03:07:54;;;;;;;18.08;9.18;;;14.20;99.90;;;14.44;100.00;101389.41;5011026;28;20096;-66
2024/02/15 03:10:24;;;;;;;20.20;9.65;;;14.20;99.90;;;14.33;100.00;101391.31;5014528;28;20089;-66
2024/02/15 03:12:52;;;;;;;18.20;9.32;;;14.10;99.90;;;14.41;100.00;101389.47;5014708;28;20046;-66
2024/02/15 03:15:21;;;;;;;21.00;9.23;;;14.10;99.90;;;14.35;100.00;101390.41;5014462;28;20117;-65
2024/02/15 03:17:52;;;;;;;19.15;9.80;;;14.10;99.90;;;14.38;100.00;101384.19;5015132;28;20483;-66
2024/02/15 03:20:23;;;;;;;;;;;14.10;99.90;;;14.40;100.00;101383.25;5015357;28;20046;-65
2024/02/15 03:22:54;;;;;;;22.48;10.50;;;14.10;99.90;;;14.36;100.00;101370.03;4997047;28;19921;-66
2024/02/15 03:25:24;;;;;;;15.63;9.77;;;14.10;99.90;;;14.37;100.00;101379.75;5014665;28;20092;-65
2024/02/15 03:27:53;;;;;;;17.27;9.33;;;14.10;99.90;;;14.37;100.00;101377.09;5014329;28;20041;-66
2024/02/15 03:30:23;;;;;;;20.58;10.63;;;14.10;99.90;;;14.34;100.00;101383.31;4996829;28;20511;-66
2024/02/15 03:32:53;;;;;;;21.02;10.35;;;14.10;99.90;;;14.32;100.00;101378.94;5014467;28;20049;-66
2024/02/15 03:35:26;;;;;;;15.98;10.50;;;14.00;99.90;;;14.33;100.00;101386.00;5014250;28;20411;-66
2024/02/15 03:37:54;;;;;;;15.32;10.57;;;14.00;99.90;;;14.35;100.00;101382.44;5014433;28;20061;-65
2024/02/15 03:40:26;;;;;;;17.55;12.30;;;14.10;99.90;;;14.31;100.00;101372.72;5014596;28;20064;-66
2024/02/15 03:42:56;;;;;;;15.77;11.20;;;14.00;99.90;;;14.16;100.00;101345.38;5014436;28;20120;-66
2024/02/15 03:45:25;;;;;;;15.85;10.95;;;14.10;99.90;;;14.25;100.00;101366.53;5014256;28;20438;-66
2024/02/15 03:47:56;;;;;;;12.25;10.43;;;14.00;99.90;;;14.25;100.00;101364.78;5014293;28;20052;-67
2024/02/15 03:50:25;;;;;;;18.48;11.15;;;14.00;99.90;;;14.30;100.00;101367.44;5014030;28;20546;-66
2024/02/15 03:52:53;;;;;;;15.35;10.45;;;14.00;99.90;;;14.27;100.00;101362.09;5014293;28;20503;-66
2024/02/15 03:55:22;;;;;;;14.30;9.45;;;14.00;99.90;;;14.17;100.00;101353.31;5013794;28;20136;-66
2024/02/15 03:57:50;;;;;;;12.23;9.07;;;14.00;99.90;;;14.27;100.00;101365.66;5013849;28;20438;-66
2024/02/15 04:00:20;;;;;;;12.38;9.50;;;14.00;99.90;;;14.24;100.00;101348.81;4996397;28;20094;-66
2024/02/15 04:02:50;;;;;;;14.85;9.52;;;14.00;99.90;;;14.31;100.00;101354.09;5014054;28;20049;-66
2024/02/15 04:05:21;;;;;;;14.55;9.90;;;14.00;99.90;;;14.22;100.00;101351.50;5013860;28;20104;-66
2024/02/15 04:07:50;;;;;;;13.52;10.05;;;14.00;99.90;;;14.17;100.00;101366.63;4996350;28;20476;-66
2024/02/15 04:10:19;;;;;;;14.77;10.15;;;14.00;99.90;;;14.22;100.00;101366.59;5013512;28;20446;-66
2024/02/15 04:12:47;;;;;;;14.85;10.80;;;14.00;99.90;;;14.30;100.00;101356.78;5013682;28;20169;-66
2024/02/15 04:15:17;;;;;;;13.18;10.20;;;14.00;99.90;;;14.25;100.00;101345.25;5013729;28;20052;-66
2024/02/15 04:17:46;;;;;;;16.23;9.88;;;14.10;99.90;;;14.19;100.00;101332.03;5013838;28;20053;-66
2024/02/15 04:20:17;;;;;;;14.68;10.65;;;14.00;99.90;;;14.17;100.00;101341.78;5012622;28;20045;-66
2024/02/15 04:22:47;;;;;;;14.85;10.80;;;14.00;99.90;;;14.19;100.00;101348.88;5013662;28;20046;-66
2024/02/15 04:25:17;;;;;;;15.45;11.23;;;14.00;99.90;;;14.25;100.00;101353.25;5013335;28;20410;-66
2024/02/15 04:27:47;;;;;;;17.23;11.27;;;14.00;99.90;;;14.11;100.00;101340.09;4996312;28;20057;-67
2024/02/15 04:30:16;;;;;;;19.20;12.65;;;14.00;99.90;;;14.20;100.00;101360.41;5013831;28;20084;-66
2024/02/15 04:32:46;;;;;;;19.73;12.97;;;14.00;99.90;;;14.18;100.00;101360.44;5013196;28;20053;-66
2024/02/15 04:35:15;;;;;;;20.40;12.65;;;13.90;99.90;;;14.19;100.00;101371.94;5013317;28;20284;-66
2024/02/15 04:37:44;;;;;;;19.35;13.40;;;13.90;99.90;;;14.15;100.00;101378.22;5013026;28;20085;-66
2024/02/15 04:40:13;;;;;;;20.85;13.10;;;13.90;99.90;;;14.17;100.00;101381.69;5013229;28;20053;-66
2024/02/15 04:42:44;;;;;;;20.92;12.82;;;13.90;99.90;;;14.23;100.00;101373.66;5013283;28;20057;-66
2024/02/15 04:45:14;;;;;;;21.50;13.05;;;14.00;99.90;;;14.20;100.00;101368.38;5013268;28;20069;-66
2024/02/15 04:47:45;;;;;;;20.98;13.13;;;13.90;99.90;;;14.22;100.00;101358.59;5012922;28;20050;-66
2024/02/15 04:50:15;;;;;;;19.85;13.32;;;14.00;99.90;;;14.17;100.00;101344.47;5012790;28;20124;-66
2024/02/15 04:52:45;;;;;;;24.02;13.23;;;14.00;99.90;;;14.17;100.00;101329.38;5012940;28;20088;-66
2024/02/15 04:55:17;;;;;;;21.42;12.98;;;14.00;99.90;;;13.90;100.00;101292.47;5012875;28;20113;-66
2024/02/15 04:57:47;;;;;;;20.60;13.45;;;13.80;99.90;;;13.90;100.00;101315.53;5012688;28;20518;-66
2024/02/15 05:00:20;;;;;;;25.92;13.18;;;13.70;99.90;;;13.98;100.00;101334.94;5012639;28;20045;-66
2024/02/15 05:02:49;;;;;;;21.38;13.85;;;13.70;99.90;;;14.06;100.00;101333.06;5013017;28;20038;-66
2024/02/15 05:05:18;;;;;;;22.45;13.35;;;13.80;99.90;;;14.03;100.00;101330.44;5012442;28;20723;-66
2024/02/15 05:07:48;;;;;;;20.70;13.35;;;13.80;99.90;;;13.97;100.00;101296.84;5012672;28;20633;-66
2024/02/15 05:10:19;;;;;;;21.60;13.20;;;13.80;99.90;;;14.06;100.00;101311.78;5012994;28;20440;-66
2024/02/15 05:12:48;;;;;;;19.50;12.50;;;13.80;99.90;;;14.05;100.00;101310.91;5012652;28;20133;-66
2024/02/15 05:15:17;;;;;;;20.93;13.00;;;13.80;99.90;;;14.09;100.00;101317.94;5012529;28;20487;-66
2024/02/15 05:17:47;;;;;;;21.77;12.80;;;13.80;99.90;;;14.03;100.00;101314.50;5012654;28;20115;-66
2024/02/15 05:20:17;;;;;;;23.63;13.30;;;13.80;99.90;;;14.01;100.00;101310.97;4994977;28;20107;-66
2024/02/15 05:22:45;;;;;;;22.77;12.57;;;13.80;99.90;;;14.06;100.00;101303.81;5012361;28;20121;-66
2024/02/15 05:25:23;;;;;;;23.35;13.43;;;13.80;99.90;;;13.89;100.00;101268.53;5012783;28;20322;-66
2024/02/15 05:27:54;;;;;;;21.63;13.20;;;13.80;99.90;;;13.99;100.00;101305.69;5012547;28;20054;-66
2024/02/15 05:30:25;;;;;;;22.05;13.70;;;13.80;99.90;;;14.01;100.00;101303.88;5012262;28;20740;-66
2024/02/15 05:32:54;;;;;;;19.13;13.57;;;13.80;99.90;;;14.01;100.00;101322.50;5011709;28;20484;-66
2024/02/15 05:35:24;;;;;;;19.83;13.85;;;13.80;99.90;;;13.87;100.00;101279.22;5011993;28;20108;-66
2024/02/15 05:37:53;;;;;;;22.42;14.05;;;13.80;99.90;;;13.99;100.00;101304.78;5012187;28;20095;-66
2024/02/15 05:40:23;;;;;;;22.92;13.45;;;13.80;99.90;;;14.04;100.00;101300.28;5011851;28;20068;-66
2024/02/15 05:42:58;;;;;;;22.97;13.67;;;13.80;99.90;;;14.03;100.00;101303.84;5012144;28;20109;-66
2024/02/15 05:45:34;;;;;;;23.48;11.70;;;13.70;99.90;;;14.06;100.00;101298.47;5011818;28;20285;-66
2024/02/15 05:48:08;;;;;;;18.05;12.70;;;13.80;99.90;;;14.07;100.00;101297.59;5011745;28;20096;-66
2024/02/15 05:50:37;;;;;;;15.60;12.13;;;13.80;99.90;;;14.04;100.00;101284.31;5011991;28;20053;-65
2024/02/15 05:53:07;;;;;;;15.63;11.95;;;13.80;99.90;;;14.09;100.00;101287.81;5011682;28;20049;-66
2024/02/15 05:55:37;;;;;;;17.67;11.85;;;13.80;99.90;;;14.14;100.00;101293.97;5011658;28;20049;-66
2024/02/15 05:58:09;;;;;;;12.70;10.15;;;13.90;99.90;;;14.12;100.00;101287.78;5011613;28;20053;-66
2024/02/15 06:00:38;;;;;;;12.30;9.70;;;13.90;99.90;;;14.11;100.00;101288.69;5011863;28;20456;-66
2024/02/15 06:03:09;;;;;;;11.60;9.75;;;13.80;99.90;;;14.10;100.00;101293.13;5011932;28;20068;-66
2024/02/15 06:05:37;;;;;;;10.73;9.50;;;13.80;99.90;;;14.11;100.00;101288.69;5011707;28;20499;-66
2024/02/15 06:08:06;;;;;;;12.10;9.75;;;13.80;99.90;;;14.09;100.00;101290.47;5011692;28;20062;-66
2024/02/15 06:10:36;;;;;;;10.80;8.93;;;13.90;99.90;;;14.11;100.00;101278.06;5011717;28;20042;-66
2024/02/15 06:13:05;;;;;;;12.55;9.35;;;13.80;99.90;;;14.09;100.00;101293.16;5011385;28;20073;-66
2024/02/15 06:15:33;;;;;;;12.40;10.10;;;13.80;99.90;;;14.10;100.00;101270.94;5011397;28;20060;-65
2024/02/15 06:18:03;;;;;;;11.00;9.68;;;13.80;99.90;;;14.12;100.00;101275.34;5011627;28;20062;-66
2024/02/15 06:20:35;;;;;;;13.32;10.05;;;13.90;99.90;;;14.11;100.00;101262.09;5011477;28;20056;-65
2024/02/15 06:23:06;;;;;;;13.10;9.65;;;13.90;99.90;;;14.13;100.00;101274.44;5011392;28;20046;-66
2024/02/15 06:25:34;;;;;;;;;;;13.90;99.90;;;14.15;100.00;101271.78;5011861;28;20403;-66
2024/02/15 06:28:13;;;;;;;15.02;10.43;;;13.90;99.90;;;14.14;100.00;101280.66;5011434;28;20020;-66
2024/02/15 06:42:03;;;;;;;10.55;9.32;;;13.90;99.90;;;14.17;100.00;101288.59;4976098;28;20140;-66
2024/02/15 06:44:32;;;;;;;15.30;10.32;;;14.00;99.90;;;14.14;100.00;101291.28;5010784;28;20037;-66
2024/02/15 06:47:01;;;;;;;14.07;11.00;;;13.90;99.90;;;14.15;100.00;101304.56;4993947;28;20057;-66
2024/02/15 06:49:29;;;;;;;15.13;11.25;;;13.90;99.90;;;14.07;100.00;101269.19;5011138;28;20100;-65
2024/02/15 06:51:59;;;;;;;15.10;12.10;;;13.90;99.90;;;14.09;100.00;101291.34;5011106;28;20049;-65
2024/02/15 06:54:27;;;;;;;18.50;11.60;;;13.80;99.90;;;14.09;100.00;101277.19;4993889;28;20133;-66
2024/02/15 06:56:55;;;;;;;15.38;11.95;;;13.80;99.90;;;13.47;100.00;101179.53;5010938;28;20038;-65
2024/02/15 06:59:24;;;;;;;16.38;11.43;;;13.80;99.90;;;14.02;100.00;101288.78;5010939;28;20054;-65
2024/02/15 07:01:54;;;;;;;18.95;12.23;;;13.80;99.90;;;14.03;100.00;101288.75;5011346;28;20041;-65
2024/02/15 07:04:25;;;;;;;16.27;11.40;;;13.80;99.90;;;14.00;100.00;101286.13;5010888;28;20050;-66
2024/02/15 07:06:55;;;;;;;;;;;13.80;99.90;;;14.08;100.00;101288.72;5011190;28;20050;-65
2024/02/15 07:09:24;;;;;;;16.50;11.48;;;13.80;99.90;;;13.53;100.00;101203.38;5010999;28;19921;-66
2024/02/15 07:11:53;;;;;;;19.02;11.45;;;13.80;99.90;;;14.04;100.00;101297.63;5010931;28;20053;-66
2024/02/15 07:14:21;;;;;;;18.60;11.55;;;13.80;99.90;;;14.06;100.00;101296.72;5010646;28;20128;-66
2024/02/15 07:16:51;;;;;;;18.67;11.52;;;13.80;99.90;;;14.03;100.00;101309.19;4993074;28;20066;-66
2024/02/15 07:19:21;;;;;;;19.55;12.30;;;13.80;99.90;;;14.07;100.00;101300.25;5011336;28;20446;-65
2024/02/15 07:21:50;;;;;;;16.50;11.57;;;13.80;99.90;;;14.08;100.00;101300.25;5011075;28;20042;-66
2024/02/15 07:24:19;;;;;;;17.70;11.70;;;13.80;99.90;;;14.10;100.00;101295.78;5010505;28;20084;-66
2024/02/15 07:26:47;;;;;;;16.70;11.55;;;13.80;99.90;;;13.98;100.00;101297.69;5010691;28;20115;-67
2024/02/15 07:29:16;;;;;;;18.00;10.68;;;13.80;99.90;;;14.06;100.00;101285.19;5010702;28;20046;-67
2024/02/15 07:31:45;;;;;;;16.33;10.68;;;13.80;99.90;;;14.12;100.00;101295.75;4993311;28;20450;-67
2024/02/15 07:34:14;;;;;;;14.38;10.88;;;13.80;99.90;;;14.08;100.00;101286.94;5010544;28;20514;-69
2024/02/15 07:36:45;;;;;;;15.90;10.75;;;13.80;99.90;;;14.09;100.00;101290.47;5010906;28;20403;-68
2024/02/15 07:39:22;;;;;;;18.00;11.13;;;13.80;99.90;;;14.13;100.00;101286.88;5010479;28;20050;-68
2024/02/15 07:41:52;;;;;;;15.93;10.95;;;13.90;99.90;;;14.18;100.00;101285.94;5010531;28;20046;-68
2024/02/15 07:44:21;;;;;;;14.05;10.23;;;13.90;99.90;;;14.17;100.00;101284.16;5010247;28;20121;-68
2024/02/15 07:46:51;;;;;;;16.10;10.57;;;13.90;99.90;;;14.22;100.00;101286.75;5010850;28;20137;-68
2024/02/15 07:49:19;;;;;;;16.70;11.02;;;14.00;99.90;;;14.22;100.00;101281.44;5010478;28;20046;-68
2024/02/15 07:51:52;;;;;;;18.20;11.18;;;14.00;99.90;;;14.19;100.00;101279.69;5010581;28;20046;-63
2024/02/15 07:54:22;;;;;;;17.70;11.65;;;14.00;99.90;;;14.18;100.00;101280.59;5010947;28;20042;-67
2024/02/15 07:56:51;;;;;;;16.20;11.45;;;13.90;99.90;;;14.09;100.00;101274.53;5014011;28;20073;-67
2024/02/15 07:59:21;;;;;;;15.88;11.70;;;13.90;99.90;;;14.10;100.00;101271.84;5013795;28;20049;-66
2024/02/15 08:01:50;;;;;;;17.70;11.60;;;13.90;99.90;;;14.18;100.00;101279.72;5013950;28;20037;-69
2024/02/15 08:04:20;;;;;;;18.08;11.00;;;13.90;99.90;;;14.17;100.00;101286.81;5013682;28;20059;-67
2024/02/15 08:06:53;;;;;;;;;;;14.00;99.90;;;14.16;100.00;101289.50;5015008;28;20049;-68
2024/02/15 08:09:24;;;;;;;16.17;10.82;;;14.00;99.90;;;13.70;100.00;101205.84;5013817;28;19925;-70
2024/02/15 08:11:53;;;;;;;16.15;10.40;;;13.90;99.90;;;14.25;100.00;101286.72;5013993;28;20045;-68
2024/02/15 08:14:21;;;;;;;15.13;10.77;;;14.00;99.90;;;14.26;100.00;101289.38;5013617;28;20062;-67
2024/02/15 08:16:50;;;;;;;16.08;11.02;;;14.00;99.90;;;14.32;100.00;101299.09;5013639;28;20125;-67
2024/02/15 08:19:18;;;;;;;16.58;11.10;;;14.00;99.90;;;14.29;100.00;101289.38;5013340;28;20088;-68
2024/02/15 08:21:50;;;;;;;19.27;10.88;;;14.10;99.90;;;14.24;100.00;101274.31;5013579;28;20077;-67
2024/02/15 08:24:20;;;;;;;16.65;11.60;;;14.00;99.90;;;14.28;100.00;101300.03;5013416;28;20034;-68
2024/02/15 08:26:48;;;;;;;16.37;10.13;;;14.10;99.90;;;14.20;100.00;101278.81;5013827;28;20049;-67
2024/02/15 08:29:17;;;;;;;18.80;10.73;;;14.00;99.90;;;14.28;100.00;101286.72;5013322;28;20665;-68
2024/02/15 08:31:45;;;;;;;15.52;10.60;;;14.00;99.90;;;14.19;100.00;101278.81;5013211;28;20074;-67
2024/02/15 08:34:14;;;;;;;15.65;11.18;;;14.00;99.90;;;14.23;100.00;101269.88;5013980;28;20096;-67
2024/02/15 08:36:43;;;;;;;17.63;10.63;;;14.00;99.90;;;14.15;100.00;101275.31;5013155;28;20080;-65
2024/02/15 08:39:12;;;;;;;15.85;10.30;;;14.00;99.90;;;14.18;100.00;101277.06;5013667;28;20134;-65
2024/02/15 08:41:42;;;;;;;18.27;10.57;;;13.90;99.90;;;14.11;100.00;101288.69;5013013;28;20042;-65
2024/02/15 08:44:15;;;;;;;21.67;10.43;;;13.90;99.90;;;14.11;100.00;101278.06;5012998;28;20122;-68
2024/02/15 08:46:43;;;;;;;18.08;10.07;;;13.90;99.90;;;14.13;100.00;101273.59;4995644;28;20288;-67
2024/02/15 08:49:13;;;;;;;19.20;9.18;;;13.90;99.90;;;14.06;100.00;101261.25;5012878;28;20545;-67
2024/02/15 08:51:42;;;;;;;15.40;9.52;;;13.90;99.90;;;14.13;100.00;101257.63;5013231;28;20037;-67
2024/02/15 08:54:10;;;;;;;19.17;9.60;;;13.90;99.90;;;14.14;100.00;101256.72;5013259;28;20056;-67
2024/02/15 08:56:39;;;;;;;17.15;9.55;;;13.90;99.90;;;14.11;100.00;101251.44;5012967;28;20053;-67
2024/02/15 08:59:08;;;;;;;16.52;9.18;;;13.90;99.90;;;14.17;100.00;101256.66;5012872;28;20050;-66
2024/02/15 09:01:37;;;;;;;19.60;9.23;;;13.90;99.90;;;14.14;100.00;101262.91;5013274;28;20042;-66
2024/02/15 09:04:05;;;;;;;16.00;9.25;;;13.90;99.90;;;14.12;100.00;101246.09;5012804;28;20065;-65
2024/02/15 09:06:34;;;;;;;17.27;9.60;;;13.90;99.90;;;14.13;100.00;101265.59;5011789;28;20045;-65
2024/02/15 09:09:03;;;;;;;14.00;9.30;;;13.90;99.90;;;14.11;100.00;101254.97;5012807;28;20046;-66
2024/02/15 09:11:32;;;;;;;19.42;10.15;;;13.90;99.90;;;14.14;100.00;101252.28;5012622;28;20133;-66
2024/02/15 09:14:00;;;;;;;19.80;10.85;;;13.90;99.90;;;13.64;100.00;101158.97;5012881;28;20057;-66
2024/02/15 09:16:31;;;;;;;16.33;10.13;;;13.90;99.90;;;14.19;100.00;101254.84;5012094;28;20526;-67
2024/02/15 09:19:01;;;;;;;15.68;10.38;;;13.90;99.90;;;14.21;100.00;101253.94;5012689;28;20049;-65
2024/02/15 09:21:30;;;;;;;;;;;14.00;99.90;;;14.18;100.00;101254.00;4995490;28;20049;-66
2024/02/15 09:23:59;;;;;;;16.20;10.52;;;14.00;99.90;;;14.20;100.00;101259.31;5012406;28;19968;-67
2024/02/15 09:26:28;;;;;;;16.30;9.82;;;14.00;99.90;;;14.16;100.00;101238.94;4994802;28;20092;-66
2024/02/15 09:28:56;;;;;;;15.52;10.10;;;13.90;99.90;;;14.26;100.00;101246.81;5012094;28;20049;-66
2024/02/15 09:31:25;;;;;;;18.98;9.90;;;14.00;99.90;;;14.34;100.00;101260.91;5012175;28;20523;-66
2024/02/15 09:33:55;;;;;;;16.60;10.25;;;14.10;99.90;;;14.36;100.00;101236.94;5012482;28;20045;-66
2024/02/15 09:36:24;;;;;;;18.20;10.02;;;14.10;99.90;;;14.43;100.00;101241.28;5012266;28;20389;-66
2024/02/15 09:38:52;;;;;;;17.38;9.98;;;14.20;99.90;;;14.65;100.00;101249.81;4994584;28;20514;-66
2024/02/15 09:41:21;;;;;;;15.20;9.93;;;14.30;99.90;;;14.61;100.00;101232.13;5011856;28;20128;-66
2024/02/15 09:43:49;;;;;;;15.20;9.60;;;14.40;99.90;;;14.76;100.00;101256.75;5012063;28;20068;-66
2024/02/15 09:46:18;;;;;;;13.45;9.38;;;14.50;99.90;;;14.85;100.00;101255.72;5012260;28;20074;-66
2024/02/15 09:48:58;;;;;;;14.98;9.45;;;14.60;99.90;;;14.96;100.00;101257.31;5012243;28;20073;-66
2024/02/15 09:51:31;;;;;;;13.80;9.07;;;14.70;99.90;;;15.02;100.00;101259.88;5011783;28;20050;-67
2024/02/15 09:54:00;;;;;;;14.15;9.20;;;14.80;99.90;;;15.15;100.00;101272.09;5011701;28;20088;-66
2024/02/15 09:56:32;;;;;;;14.98;8.93;;;14.90;99.90;;;15.23;100.00;101266.66;5011886;28;20065;-66
2024/02/15 09:59:01;;;;;;;13.82;10.00;;;14.90;99.90;;;15.24;100.00;101269.28;5011786;28;20462;-66
2024/02/15 10:01:33;;;;;;;17.27;10.50;;;15.00;99.90;;;15.28;100.00;101275.44;5011651;28;20062;-67
2024/02/15 10:04:07;;;;;;;15.75;10.32;;;15.00;99.90;;;15.24;100.00;101269.28;5012192;28;20045;-67
2024/02/15 10:06:36;;;;;;;16.58;10.57;;;15.00;99.90;;;15.31;100.00;101265.59;5011606;28;20510;-66
2024/02/15 10:09:29;;;;;;;21.30;11.68;;;15.00;99.90;;;15.35;100.00;101271.75;5011821;28;20376;-67
2024/02/15 10:11:58;;;;;;;18.85;10.57;;;15.10;99.90;;;15.28;100.00;101275.44;5011737;28;20080;-67
2024/02/15 10:14:28;;;;;;;16.95;10.20;;;15.10;99.90;;;15.34;100.00;101264.66;5011480;28;20053;-66
2024/02/15 10:16:57;;;;;;;19.17;9.63;;;15.10;99.90;;;15.41;100.00;101266.31;5011192;28;20100;-66
2024/02/15 10:19:27;;;;;;;16.75;9.85;;;15.10;99.90;;;15.48;100.00;101275.13;5010469;28;20116;-67